Time;durP1;ratioP1;P1;durP2;ratioP2;P2;SDS_P1;SDS_P2;PMS_P1;PMS_P2;Temp;Humidity;BMP_temperature;BMP_pressure;BME280_temperature;BME280_humidity;BME280_pressure;Samples;Min_cycle;Max_cycle;Signal;HPM_P1;HPM_P2
2023/04/24 00:00:18;;;;;;;9.75;8.73;;;10.00;99.90;;;;;;4978027;28;20284;-74
2023/04/24 00:02:48;;;;;;;9.90;8.93;;;10.00;99.90;;;;;;4995415;28;20886;-74
2023/04/24 00:05:15;;;;;;;10.32;9.32;;;10.00;99.90;;;;;;4994865;28;20045;-74
2023/04/24 00:07:43;;;;;;;11.30;10.20;;;10.00;99.90;;;;;;4977073;28;20048;-74
2023/04/24 00:10:10;;;;;;;12.65;11.35;;;10.00;99.90;;;;;;4977949;28;20517;-74
2023/04/24 00:12:37;;;;;;;11.38;10.23;;;10.00;99.90;;;;;;5015866;28;20060;-74
2023/04/24 00:15:04;;;;;;;11.85;10.65;;;10.00;99.90;;;;;;4985178;28;20360;-74
2023/04/24 00:17:31;;;;;;;13.23;11.63;;;10.00;99.90;;;;;;4968847;28;20057;-74
2023/04/24 00:20:01;;;;;;;13.57;12.13;;;10.10;99.90;;;;;;4977900;28;20548;-74
2023/04/24 00:22:28;;;;;;;14.30;11.65;;;10.10;99.90;;;;;;4988534;28;20041;-74
2023/04/24 00:24:55;;;;;;;12.98;11.63;;;10.10;99.90;;;;;;4995361;28;20064;-74
2023/04/24 00:27:21;;;;;;;13.05;11.45;;;10.10;99.90;;;;;;5020243;28;20499;-74
2023/04/24 00:29:47;;;;;;;12.77;10.63;;;10.10;99.90;;;;;;4980849;28;20036;-74
2023/04/24 00:32:14;;;;;;;9.27;8.30;;;10.10;99.90;;;;;;4978433;28;20067;-73
2023/04/24 00:34:41;;;;;;;8.00;7.20;;;10.10;99.90;;;;;;4985346;28;20029;-74
2023/04/24 00:37:07;;;;;;;5.75;5.25;;;10.10;99.90;;;;;;4980762;28;20034;-74
2023/04/24 00:39:34;;;;;;;5.43;4.93;;;10.10;99.90;;;;;;4980047;28;20037;-72
2023/04/24 00:42:01;;;;;;;5.03;4.53;;;10.10;99.90;;;;;;4986154;28;20079;-73
2023/04/24 00:44:28;;;;;;;4.82;3.95;;;10.10;99.90;;;;;;4991699;28;20037;-73
2023/04/24 00:46:55;;;;;;;4.32;3.92;;;10.10;99.90;;;;;;4957047;28;20037;-72
2023/04/24 00:49:22;;;;;;;4.13;3.65;;;10.10;99.90;;;;;;4978364;28;20037;-72
2023/04/24 00:51:49;;;;;;;3.95;3.55;;;10.10;99.90;;;;;;4955099;28;20816;-73
2023/04/24 00:54:16;;;;;;;4.00;3.45;;;10.10;99.90;;;;;;4996453;28;20037;-72
2023/04/24 00:56:43;;;;;;;3.95;3.58;;;10.10;99.90;;;;;;4966805;28;20714;-73
2023/04/24 00:59:13;;;;;;;5.13;4.72;;;10.10;99.90;;;;;;4981840;28;20473;-73
2023/04/24 01:01:43;;;;;;;5.40;4.70;;;10.10;99.90;;;;;;4973780;28;20036;-73
2023/04/24 01:04:11;;;;;;;5.35;4.85;;;10.10;99.90;;;;;;4972375;28;20045;-73
2023/04/24 01:06:43;;;;;;;7.85;5.43;;;10.10;99.90;;;;;;5007792;28;20033;-73
2023/04/24 01:09:11;;;;;;;6.88;6.18;;;10.00;99.90;;;;;;4982722;28;20511;-72
2023/04/24 01:11:39;;;;;;;8.07;6.70;;;10.10;99.90;;;;;;4942758;28;20042;-73
2023/04/24 01:14:06;;;;;;;8.05;6.93;;;10.10;99.90;;;;;;4980436;28;20519;-72
2023/04/24 01:16:33;;;;;;;10.45;8.82;;;10.00;99.90;;;;;;4981861;28;20028;-73
2023/04/24 01:19:01;;;;;;;10.43;8.77;;;10.00;99.90;;;;;;4962276;28;20046;-73
2023/04/24 01:21:29;;;;;;;14.55;11.88;;;10.10;99.90;;;;;;4972553;28;20033;-73
2023/04/24 01:23:57;;;;;;;18.55;13.63;;;10.10;99.90;;;;;;4988654;28;20905;-73
2023/04/24 01:26:25;;;;;;;22.67;17.08;;;10.10;99.90;;;;;;4990369;28;20041;-73
2023/04/24 01:28:53;;;;;;;26.88;19.55;;;10.10;99.90;;;;;;4973366;28;21146;-73
2023/04/24 01:31:19;;;;;;;28.55;20.42;;;10.10;99.90;;;;;;4939304;28;20516;-73
2023/04/24 01:33:47;;;;;;;33.60;22.65;;;10.10;99.90;;;;;;4978764;28;20033;-74
2023/04/24 01:36:13;;;;;;;33.15;21.90;;;10.10;99.90;;;;;;4965829;28;20037;-74
2023/04/24 01:38:40;;;;;;;33.70;22.58;;;10.10;99.90;;;;;;4981909;28;20044;-74
2023/04/24 01:41:06;;;;;;;38.28;24.95;;;10.10;99.90;;;;;;4973761;28;20044;-75
2023/04/24 01:43:32;;;;;;;34.25;23.80;;;10.10;99.90;;;;;;4986507;28;20033;-75
2023/04/24 01:45:59;;;;;;;29.05;20.95;;;10.00;99.90;;;;;;4973089;28;21761;-75
2023/04/24 01:48:25;;;;;;;29.60;18.85;;;10.00;99.90;;;;;;4991534;28;20042;-76
2023/04/24 01:50:52;;;;;;;25.08;16.33;;;10.00;99.90;;;;;;4992580;28;20060;-76
2023/04/24 01:53:18;;;;;;;17.15;12.73;;;10.00;99.90;;;;;;4980298;28;20034;-77
2023/04/24 01:55:45;;;;;;;16.23;10.18;;;9.90;99.90;;;;;;4962978;28;20034;-75
2023/04/24 01:58:13;;;;;;;13.40;8.80;;;9.90;99.90;;;;;;4981339;28;20056;-75
2023/04/24 02:00:39;;;;;;;14.07;10.23;;;9.90;99.90;;;;;;4973925;28;20189;-75
2023/04/24 02:03:06;;;;;;;12.43;9.02;;;9.90;99.90;;;;;;4981524;28;20052;-74
2023/04/24 02:05:32;;;;;;;12.90;8.90;;;9.90;99.90;;;;;;5017025;28;20048;-74
2023/04/24 02:07:58;;;;;;;13.43;9.48;;;9.90;99.90;;;;;;4991564;28;20037;-74
2023/04/24 02:10:25;;;;;;;18.98;13.05;;;9.90;99.90;;;;;;4980043;28;21787;-75
2023/04/24 02:12:51;;;;;;;16.33;11.60;;;9.90;99.90;;;;;;4964949;28;20382;-75
2023/04/24 02:15:17;;;;;;;17.60;12.30;;;9.90;99.90;;;;;;4961386;28;20484;-76
2023/04/24 02:17:44;;;;;;;19.30;12.60;;;9.90;99.90;;;;;;4980701;28;21561;-76
2023/04/24 02:20:10;;;;;;;25.25;16.35;;;9.90;99.90;;;;;;4974215;28;20038;-76
2023/04/24 02:22:38;;;;;;;29.00;17.60;;;9.90;99.90;;;;;;4966223;28;20069;-75
2023/04/24 02:25:05;;;;;;;27.80;17.45;;;9.90;99.90;;;;;;4949395;28;20048;-75
2023/04/24 02:27:32;;;;;;;23.52;16.60;;;9.90;99.90;;;;;;4973634;28;20037;-76
2023/04/24 02:29:58;;;;;;;34.78;24.95;;;9.90;99.90;;;;;;4967737;28;20049;-75
2023/04/24 02:32:25;;;;;;;37.72;26.60;;;9.90;99.90;;;;;;4964475;28;20029;-75
2023/04/24 02:34:51;;;;;;;49.05;32.88;;;9.90;99.90;;;;;;4980046;28;20033;-75
2023/04/24 02:37:17;;;;;;;50.10;33.42;;;9.80;99.90;;;;;;4949500;28;20037;-75
2023/04/24 02:39:44;;;;;;;50.60;35.65;;;9.80;99.90;;;;;;4976921;28;20488;-75
2023/04/24 02:42:10;;;;;;;52.78;37.13;;;9.80;99.90;;;;;;4975891;28;20499;-74
2023/04/24 02:44:36;;;;;;;60.47;39.25;;;9.80;99.90;;;;;;4965470;28;20037;-75
2023/04/24 02:47:03;;;;;;;55.33;35.85;;;9.80;99.90;;;;;;4990943;28;20033;-75
2023/04/24 02:49:30;;;;;;;53.03;35.47;;;9.80;99.90;;;;;;4971502;28;20691;-75
2023/04/24 02:51:57;;;;;;;49.80;34.53;;;9.80;99.90;;;;;;4959666;28;20036;-75
2023/04/24 02:54:23;;;;;;;44.15;31.55;;;9.80;99.90;;;;;;4980480;28;20524;-75
2023/04/24 02:56:50;;;;;;;51.65;36.47;;;9.80;99.90;;;;;;4978624;28;20037;-74
2023/04/24 02:59:16;;;;;;;52.17;34.83;;;9.80;99.90;;;;;;4981601;28;20029;-74
2023/04/24 03:01:42;;;;;;;51.47;34.63;;;9.80;99.90;;;;;;4955578;28;20041;-74
2023/04/24 03:04:10;;;;;;;48.25;32.42;;;9.80;99.90;;;;;;4979935;28;20045;-74
2023/04/24 03:06:36;;;;;;;50.10;34.53;;;9.80;99.90;;;;;;4986711;28;20037;-75
2023/04/24 03:09:03;;;;;;;47.42;32.42;;;9.80;99.90;;;;;;4971822;28;20096;-75
2023/04/24 03:11:29;;;;;;;44.05;30.08;;;9.80;99.90;;;;;;4978122;28;20037;-75
2023/04/24 03:13:55;;;;;;;48.08;31.88;;;9.80;99.90;;;;;;4979717;28;20497;-75
2023/04/24 03:16:22;;;;;;;41.78;29.23;;;9.80;99.90;;;;;;4961405;28;20770;-75
2023/04/24 03:18:48;;;;;;;37.80;25.67;;;9.70;99.90;;;;;;4980121;28;20044;-75
2023/04/24 03:21:15;;;;;;;39.10;25.88;;;9.70;99.90;;;;;;4973122;28;20052;-76
2023/04/24 03:23:45;;;;;;;35.03;23.70;;;9.80;99.90;;;;;;4967350;28;20052;-75
2023/04/24 03:26:11;;;;;;;42.58;27.67;;;9.80;99.90;;;;;;4968186;28;20033;-75
2023/04/24 03:28:44;;;;;;;38.28;25.25;;;9.80;99.90;;;;;;5005247;28;20042;-75
2023/04/24 03:31:11;;;;;;;45.83;29.17;;;9.80;99.90;;;;;;4964782;28;20034;-75
2023/04/24 03:33:37;;;;;;;44.97;29.45;;;9.80;99.90;;;;;;4965917;28;20068;-75
2023/04/24 03:36:04;;;;;;;39.92;27.27;;;9.80;99.90;;;;;;4981673;28;20084;-74
2023/04/24 03:38:37;;;;;;;45.30;28.15;;;9.80;99.90;;;;;;4980613;28;20044;-75
2023/04/24 03:41:23;;;;;;;45.97;31.33;;;9.80;99.90;;;;;;4973139;28;20049;-74
2023/04/24 03:43:54;;;;;;;41.13;30.52;;;9.80;99.90;;;;;;4949714;28;20728;-75
2023/04/24 03:46:21;;;;;;;46.58;32.28;;;9.80;99.90;;;;;;4957144;28;20048;-74
2023/04/24 03:48:53;;;;;;;42.95;30.65;;;9.70;99.90;;;;;;4994523;28;20026;-75
2023/04/24 03:51:23;;;;;;;52.08;34.78;;;9.70;99.90;;;;;;4967616;28;20061;-74
2023/04/24 03:53:53;;;;;;;56.55;38.83;;;9.70;99.90;;;;;;5004749;28;20049;-74
2023/04/24 03:56:21;;;;;;;51.67;36.90;;;9.70;99.90;;;;;;4954200;28;20483;-75
2023/04/24 03:58:48;;;;;;;67.13;43.85;;;9.60;99.90;;;;;;4988390;28;20412;-74
2023/04/24 04:01:16;;;;;;;60.85;41.60;;;9.60;99.90;;;;;;4960229;28;21283;-74
2023/04/24 04:03:49;;;;;;;61.08;41.78;;;9.60;99.90;;;;;;4985587;28;20053;-74
2023/04/24 04:06:21;;;;;;;62.38;42.97;;;9.60;99.90;;;;;;4985650;28;20579;-75
2023/04/24 04:08:47;;;;;;;79.95;51.35;;;9.60;99.90;;;;;;4980941;28;20069;-74
2023/04/24 04:11:14;;;;;;;72.30;48.65;;;9.70;99.90;;;;;;4970805;28;20710;-75
2023/04/24 04:13:40;;;;;;;75.63;47.90;;;9.60;99.90;;;;;;4992114;28;20044;-74
2023/04/24 04:16:08;;;;;;;66.00;45.65;;;9.60;99.90;;;;;;4983216;28;20036;-74
2023/04/24 04:18:35;;;;;;;74.53;51.63;;;9.60;99.90;;;;;;4954908;28;20044;-75
2023/04/24 04:21:02;;;;;;;78.00;51.90;;;9.60;99.90;;;;;;4973255;28;20037;-75
2023/04/24 04:23:29;;;;;;;75.85;50.63;;;9.50;99.90;;;;;;4998852;28;20052;-75
2023/04/24 04:26:07;;;;;;;61.80;44.15;;;9.50;99.90;;;;;;4981757;28;20265;-76
2023/04/24 04:28:52;;;;;;;65.40;45.28;;;9.40;99.90;;;;;;4989828;28;20041;-76
2023/04/24 04:31:20;;;;;;;69.00;49.20;;;9.40;99.90;;;;;;4982899;28;20029;-75
2023/04/24 04:33:48;;;;;;;62.65;44.17;;;9.50;99.90;;;;;;4988488;28;20064;-75
2023/04/24 04:36:17;;;;;;;64.32;42.05;;;9.50;99.90;;;;;;4963571;28;20033;-75
2023/04/24 04:38:46;;;;;;;67.15;45.40;;;9.50;99.90;;;;;;4981551;28;20048;-76
2023/04/24 04:41:23;;;;;;;68.43;44.92;;;9.40;99.90;;;;;;4971999;28;20029;-76
2023/04/24 04:43:50;;;;;;;65.40;44.28;;;9.40;99.90;;;;;;5012669;28;20042;-75
2023/04/24 04:46:17;;;;;;;66.53;44.30;;;9.40;99.90;;;;;;4966087;28;20068;-75
2023/04/24 04:48:56;;;;;;;61.88;40.95;;;9.40;99.90;;;;;;4960159;28;20041;-76
2023/04/24 04:51:22;;;;;;;71.50;45.70;;;9.40;99.90;;;;;;4984242;28;20053;-76
2023/04/24 04:53:49;;;;;;;67.90;44.72;;;9.40;99.90;;;;;;4988962;28;20043;-76
2023/04/24 04:56:16;;;;;;;60.65;40.60;;;9.40;99.90;;;;;;4980969;28;20037;-76
2023/04/24 04:58:45;;;;;;;56.75;39.90;;;9.40;99.90;;;;;;4966921;28;20105;-76
2023/04/24 05:01:15;;;;;;;60.13;40.25;;;9.40;99.90;;;;;;4956081;28;20057;-76
2023/04/24 05:03:45;;;;;;;62.03;42.35;;;9.40;99.90;;;;;;4954493;28;20029;-76
2023/04/24 05:06:14;;;;;;;59.55;39.90;;;9.40;99.90;;;;;;4965757;28;20042;-76
2023/04/24 05:08:41;;;;;;;56.20;39.33;;;9.40;99.90;;;;;;4974828;28;20375;-76
2023/04/24 05:11:11;;;;;;;63.95;41.50;;;9.40;99.90;;;;;;4980378;28;20041;-76
2023/04/24 05:13:39;;;;;;;64.03;40.35;;;9.40;99.90;;;;;;4975278;28;20033;-76
2023/04/24 05:16:09;;;;;;;55.80;37.38;;;9.40;99.90;;;;;;4965850;28;20046;-74
2023/04/24 05:18:36;;;;;;;56.70;38.53;;;9.40;99.90;;;;;;4953243;28;20040;-75
2023/04/24 05:21:03;;;;;;;55.53;37.40;;;9.40;99.90;;;;;;4941507;28;20437;-74
2023/04/24 05:23:30;;;;;;;56.72;37.53;;;9.40;99.90;;;;;;4982803;28;20892;-75
2023/04/24 05:25:57;;;;;;;52.15;34.78;;;9.40;99.90;;;;;;4962829;28;20050;-75
2023/04/24 05:28:28;;;;;;;58.42;37.53;;;9.40;99.90;;;;;;4988680;28;20042;-75
2023/04/24 05:31:03;;;;;;;52.13;36.28;;;9.40;99.90;;;;;;4994824;28;20088;-74
2023/04/24 05:33:30;;;;;;;45.13;31.58;;;9.40;99.90;;;;;;4954303;28;20671;-75
2023/04/24 05:35:57;;;;;;;51.30;33.58;;;9.40;99.90;;;;;;4980431;28;20033;-74
2023/04/24 05:38:23;;;;;;;52.20;34.05;;;9.40;99.90;;;;;;4982391;28;20033;-74
2023/04/24 05:40:50;;;;;;;43.28;30.45;;;9.40;99.90;;;;;;4977177;28;20420;-75
2023/04/24 05:43:16;;;;;;;47.95;31.00;;;9.40;99.90;;;;;;4987511;28;20481;-75
2023/04/24 05:45:43;;;;;;;44.47;29.13;;;9.40;99.90;;;;;;4968567;28;20049;-75
2023/04/24 05:48:09;;;;;;;44.15;28.95;;;9.50;99.90;;;;;;5021124;28;20551;-75
2023/04/24 05:50:35;;;;;;;40.72;26.67;;;9.40;99.90;;;;;;4963827;28;20049;-74
2023/04/24 05:53:02;;;;;;;39.50;24.63;;;9.50;99.90;;;;;;4970964;28;20049;-75
2023/04/24 05:55:33;;;;;;;47.38;30.30;;;9.50;99.90;;;;;;4999007;28;20053;-75
2023/04/24 05:57:59;;;;;;;39.45;25.10;;;9.50;99.90;;;;;;4970031;28;20244;-75
2023/04/24 06:00:26;;;;;;;44.28;28.23;;;9.60;99.90;;;;;;5013006;28;20029;-77
2023/04/24 06:03:00;;;;;;;40.47;25.33;;;9.60;99.90;;;;;;4967912;28;20037;-76
2023/04/24 06:05:27;;;;;;;38.47;24.83;;;9.70;99.90;;;;;;4967477;28;20444;-77
2023/04/24 06:07:54;;;;;;;44.30;28.95;;;9.70;99.90;;;;;;4990275;28;20048;-76
2023/04/24 06:10:23;;;;;;;33.63;23.63;;;9.70;99.90;;;;;;4985509;28;20265;-77
2023/04/24 06:12:50;;;;;;;32.65;21.98;;;9.70;99.90;;;;;;4990364;28;20412;-77
2023/04/24 06:15:17;;;;;;;33.38;22.15;;;9.70;99.90;;;;;;4986055;28;20056;-76
2023/04/24 06:17:57;;;;;;;35.78;22.05;;;9.70;99.90;;;;;;4999217;28;20687;-77
2023/04/24 06:20:24;;;;;;;30.52;19.85;;;9.70;99.90;;;;;;5010230;28;20029;-76
2023/04/24 06:22:50;;;;;;;30.10;19.95;;;9.70;99.90;;;;;;4949918;28;20050;-77
2023/04/24 06:25:17;;;;;;;25.30;16.45;;;9.80;99.90;;;;;;4953114;28;20044;-77
2023/04/24 06:27:44;;;;;;;26.52;17.77;;;9.80;99.90;;;;;;4992526;28;20037;-77
2023/04/24 06:30:11;;;;;;;29.13;19.25;;;9.80;99.90;;;;;;5018253;28;20119;-75
2023/04/24 06:32:37;;;;;;;28.27;18.80;;;9.80;99.90;;;;;;4993096;28;20732;-75
2023/04/24 06:35:04;;;;;;;34.67;20.88;;;9.90;99.90;;;;;;4988403;28;20030;-76
2023/04/24 06:37:32;;;;;;;31.55;19.90;;;9.90;99.90;;;;;;4987184;28;20033;-76
2023/04/24 06:39:58;;;;;;;27.73;17.77;;;9.90;99.90;;;;;;4980281;28;20030;-75
2023/04/24 06:42:24;;;;;;;26.98;17.08;;;10.00;99.90;;;;;;4982150;28;20044;-76
2023/04/24 06:44:50;;;;;;;27.05;17.60;;;10.00;99.90;;;;;;4987278;28;20048;-78
2023/04/24 06:47:18;;;;;;;23.30;16.10;;;10.00;99.90;;;;;;4993892;28;20033;-75
2023/04/24 06:49:44;;;;;;;23.33;15.30;;;10.00;99.90;;;;;;4989864;28;20046;-75
2023/04/24 06:52:11;;;;;;;22.98;15.48;;;10.00;99.90;;;;;;4981004;28;20051;-75
2023/04/24 06:54:37;;;;;;;21.60;13.88;;;10.10;99.90;;;;;;4981301;28;20045;-75
2023/04/24 06:57:03;;;;;;;20.13;12.80;;;10.10;99.90;;;;;;4982622;28;20289;-75
2023/04/24 06:59:30;;;;;;;19.80;12.82;;;10.10;99.90;;;;;;4981964;28;20037;-74
2023/04/24 07:01:57;;;;;;;16.90;10.80;;;10.10;99.90;;;;;;4980197;28;20029;-74
2023/04/24 07:04:24;;;;;;;11.63;8.65;;;10.10;99.90;;;;;;4983449;28;20029;-75
2023/04/24 07:06:51;;;;;;;11.38;7.47;;;10.10;99.90;;;;;;5001781;28;20044;-75
2023/04/24 07:09:18;;;;;;;12.13;8.05;;;10.10;99.90;;;;;;4987621;28;20045;-75
2023/04/24 07:11:45;;;;;;;7.97;6.15;;;10.20;99.90;;;;;;4978729;28;20044;-76
2023/04/24 07:14:12;;;;;;;10.88;7.35;;;10.10;99.90;;;;;;4986258;28;20192;-75
2023/04/24 07:16:38;;;;;;;10.23;6.80;;;10.20;99.90;;;;;;4986657;28;20509;-75
2023/04/24 07:19:06;;;;;;;10.20;6.25;;;10.10;99.90;;;;;;4990352;28;20033;-75
2023/04/24 07:21:32;;;;;;;7.97;5.65;;;10.10;99.90;;;;;;4956969;28;20030;-75
2023/04/24 07:23:58;;;;;;;6.55;5.20;;;10.00;99.90;;;;;;4998009;28;20037;-75
2023/04/24 07:26:26;;;;;;;9.05;5.30;;;10.00;99.90;;;;;;4994541;28;22275;-76
2023/04/24 07:28:53;;;;;;;5.80;4.30;;;10.00;99.90;;;;;;4993146;28;20540;-75
2023/04/24 07:31:19;;;;;;;7.00;4.63;;;9.90;99.90;;;;;;4981630;28;20629;-75
2023/04/24 07:33:45;;;;;;;6.18;3.95;;;9.90;99.90;;;;;;5005729;28;20036;-75
2023/04/24 07:36:15;;;;;;;7.43;4.90;;;9.90;99.90;;;;;;4991617;28;20364;-75
2023/04/24 07:38:42;;;;;;;5.38;3.78;;;9.90;99.90;;;;;;4992229;28;20040;-75
2023/04/24 07:41:09;;;;;;;8.50;3.92;;;9.90;99.90;;;;;;5005353;28;20412;-75
2023/04/24 07:43:35;;;;;;;3.83;3.20;;;9.80;99.90;;;;;;4980807;28;20030;-75
2023/04/24 07:46:01;;;;;;;4.82;3.50;;;9.80;99.90;;;;;;4987958;28;20041;-75
2023/04/24 07:48:28;;;;;;;8.15;4.55;;;9.70;99.90;;;;;;4989360;28;22412;-75
2023/04/24 07:50:54;;;;;;;6.65;3.95;;;9.60;99.90;;;;;;4981558;28;20050;-76
2023/04/24 07:53:21;;;;;;;5.97;4.03;;;9.60;99.90;;;;;;4989873;28;20032;-73
2023/04/24 07:55:47;;;;;;;9.98;6.63;;;9.50;99.90;;;;;;4973294;28;20496;-75
2023/04/24 07:58:13;;;;;;;10.48;7.38;;;9.50;99.90;;;;;;4975535;28;20583;-75
2023/04/24 08:00:40;;;;;;;10.70;8.48;;;9.40;99.90;;;;;;4989086;28;20060;-75
2023/04/24 08:03:06;;;;;;;15.93;10.77;;;9.40;99.90;;;;;;4996925;28;20044;-74
2023/04/24 08:05:32;;;;;;;19.98;13.23;;;9.30;99.90;;;;;;4989485;28;20036;-75
2023/04/24 08:07:59;;;;;;;20.83;14.02;;;9.20;99.90;;;;;;4991340;28;20048;-75
2023/04/24 08:10:25;;;;;;;18.83;13.63;;;9.20;99.90;;;;;;4983191;28;20045;-76
2023/04/24 08:12:52;;;;;;;23.15;15.25;;;9.10;99.90;;;;;;4988584;28;20038;-76
2023/04/24 08:15:18;;;;;;;19.40;13.90;;;9.10;99.90;;;;;;4971238;28;20430;-76
2023/04/24 08:17:45;;;;;;;18.13;14.57;;;9.10;99.90;;;;;;4975442;28;20041;-76
2023/04/24 08:20:13;;;;;;;17.25;13.13;;;9.00;99.90;;;;;;5022364;28;20033;-76
2023/04/24 08:22:40;;;;;;;23.48;16.80;;;9.00;99.90;;;;;;4995961;28;20474;-76
2023/04/24 08:25:07;;;;;;;21.80;14.73;;;9.00;99.90;;;;;;4991931;28;20040;-75
2023/04/24 08:27:34;;;;;;;23.35;15.15;;;9.00;99.90;;;;;;4988860;28;20052;-76
2023/04/24 08:30:00;;;;;;;21.73;15.18;;;9.00;99.90;;;;;;4966770;28;20496;-76
2023/04/24 08:32:30;;;;;;;21.88;14.13;;;8.90;99.90;;;;;;4987770;28;20029;-76
2023/04/24 08:34:57;;;;;;;27.20;15.45;;;8.90;99.90;;;;;;4991019;28;20112;-76
2023/04/24 08:37:24;;;;;;;20.20;15.18;;;8.90;99.90;;;;;;4987712;28;20032;-77
2023/04/24 08:39:50;;;;;;;25.33;16.70;;;8.90;99.90;;;;;;4992593;28;20037;-77
2023/04/24 08:42:21;;;;;;;23.50;16.67;;;8.90;99.90;;;;;;4979445;28;20527;-77
2023/04/24 08:44:49;;;;;;;26.25;17.08;;;9.00;99.90;;;;;;4999831;28;20041;-77
2023/04/24 08:47:16;;;;;;;28.13;16.92;;;9.00;99.90;;;;;;4988606;28;21966;-76
2023/04/24 08:49:43;;;;;;;23.67;15.15;;;9.00;99.90;;;;;;4990441;28;20494;-77
2023/04/24 08:52:12;;;;;;;23.70;17.58;;;9.00;99.90;;;;;;4971401;28;20230;-77
2023/04/24 08:54:40;;;;;;;22.90;15.95;;;9.10;99.90;;;;;;4990436;28;20033;-76
2023/04/24 08:57:09;;;;;;;26.45;17.48;;;9.10;99.90;;;;;;4988987;28;20037;-76
2023/04/24 08:59:36;;;;;;;34.13;19.48;;;9.00;99.90;;;;;;4973527;28;20396;-77
2023/04/24 09:02:04;;;;;;;27.80;17.73;;;9.00;99.90;;;;;;4994386;28;20041;-76
2023/04/24 09:04:33;;;;;;;28.77;16.63;;;9.00;99.90;;;;;;4960785;28;20392;-75
2023/04/24 09:07:00;;;;;;;23.35;15.32;;;9.10;99.90;;;;;;4986170;28;20072;-76
2023/04/24 09:09:31;;;;;;;22.15;13.07;;;9.10;99.90;;;;;;4987898;28;20464;-76
2023/04/24 09:11:58;;;;;;;17.75;12.45;;;9.10;99.90;;;;;;4967877;28;20052;-75
2023/04/24 09:14:25;;;;;;;21.92;11.60;;;9.10;99.90;;;;;;4969971;28;20052;-76
2023/04/24 09:16:52;;;;;;;15.20;9.35;;;9.10;99.90;;;;;;4988953;28;20567;-75
2023/04/24 09:19:18;;;;;;;15.80;8.48;;;9.00;99.90;;;;;;4989077;28;20373;-76
2023/04/24 09:21:46;;;;;;;14.90;7.35;;;9.00;99.90;;;;;;4987955;28;20041;-75
2023/04/24 09:24:22;;;;;;;17.20;8.35;;;9.00;99.90;;;;;;5010968;28;20044;-76
2023/04/24 09:26:57;;;;;;;17.48;9.05;;;9.00;99.90;;;;;;5021880;28;20474;-77
2023/04/24 09:29:24;;;;;;;14.30;8.57;;;9.00;99.90;;;;;;5002726;28;20529;-76
2023/04/24 09:31:50;;;;;;;19.52;9.10;;;9.10;99.90;;;;;;4983189;28;20397;-76
2023/04/24 09:34:22;;;;;;;21.38;8.77;;;9.00;99.90;;;;;;4989774;28;21025;-75
2023/04/24 09:36:49;;;;;;;21.27;9.48;;;9.00;99.90;;;;;;4989643;28;20037;-75
2023/04/24 09:39:16;;;;;;;18.05;7.50;;;9.10;99.90;;;;;;4992205;28;20524;-76
2023/04/24 09:41:49;;;;;;;20.60;7.50;;;9.10;99.90;;;;;;4970955;28;20037;-75
2023/04/24 09:44:20;;;;;;;22.42;6.53;;;9.20;99.90;;;;;;4993114;28;20032;-75
2023/04/24 09:46:52;;;;;;;18.30;5.82;;;9.20;99.90;;;;;;5022382;28;20484;-75
2023/04/24 09:49:28;;;;;;;16.83;4.88;;;9.20;99.90;;;;;;4984901;28;20531;-74
2023/04/24 09:52:05;;;;;;;17.58;5.82;;;9.20;99.90;;;;;;4974112;28;20033;-75
2023/04/24 09:54:33;;;;;;;18.23;5.22;;;9.30;99.90;;;;;;4987563;28;20036;-75
2023/04/24 09:57:00;;;;;;;18.30;4.55;;;9.40;99.90;;;;;;4986264;28;20037;-74
2023/04/24 09:59:26;;;;;;;14.90;5.63;;;9.50;99.90;;;;;;4986350;28;20044;-74
2023/04/24 10:01:53;;;;;;;13.40;4.57;;;9.60;99.90;;;;;;4970579;28;20060;-75
2023/04/24 10:04:21;;;;;;;9.82;3.55;;;9.70;99.90;;;;;;4991325;28;20483;-75
2023/04/24 10:06:49;;;;;;;19.20;4.88;;;9.80;99.90;;;;;;4989067;28;20041;-74
2023/04/24 10:09:20;;;;;;;12.57;4.38;;;9.70;99.90;;;;;;4986235;28;20050;-74
2023/04/24 10:11:49;;;;;;;12.63;4.57;;;9.60;99.90;;;;;;4964920;28;20519;-74
2023/04/24 10:14:18;;;;;;;17.00;4.78;;;9.80;99.90;;;;;;4984481;28;20064;-74
2023/04/24 10:16:46;;;;;;;12.30;3.60;;;10.00;99.90;;;;;;4989005;28;20041;-74
2023/04/24 10:19:13;;;;;;;12.57;4.45;;;10.20;99.90;;;;;;4986089;28;20037;-74
2023/04/24 10:21:42;;;;;;;12.57;4.18;;;10.40;99.90;;;;;;4986325;28;20071;-74
2023/04/24 10:24:09;;;;;;;15.23;4.30;;;10.70;99.90;;;;;;4992999;28;20037;-75
2023/04/24 10:26:37;;;;;;;16.20;4.95;;;11.10;99.90;;;;;;4992731;28;20052;-75
2023/04/24 10:29:09;;;;;;;16.38;4.60;;;11.40;99.90;;;;;;4987326;28;20052;-75
2023/04/24 10:31:38;;;;;;;12.38;3.83;;;11.70;99.90;;;;;;4961329;28;20421;-76
2023/04/24 10:34:08;;;;;;;12.15;3.80;;;12.00;99.90;;;;;;4969141;28;20037;-75
2023/04/24 10:36:38;;;;;;;7.88;3.17;;;12.00;99.90;;;;;;4985499;28;20036;-74
2023/04/24 10:39:11;;;;;;;12.75;3.30;;;11.90;99.90;;;;;;4988276;28;20586;-75
2023/04/24 10:41:38;;;;;;;11.32;3.20;;;11.60;99.90;;;;;;4985783;28;20045;-75
2023/04/24 10:44:13;;;;;;;11.27;3.50;;;11.40;99.90;;;;;;4994792;28;20327;-75
2023/04/24 10:46:44;;;;;;;13.70;2.70;;;11.10;99.90;;;;;;4977414;28;20432;-74
2023/04/24 10:49:10;;;;;;;13.18;3.45;;;10.90;99.90;;;;;;4990164;28;20048;-75
2023/04/24 10:51:46;;;;;;;9.55;2.45;;;10.80;99.90;;;;;;4978685;28;20041;-74
2023/04/24 10:54:41;;;;;;;13.13;2.53;;;10.70;99.90;;;;;;4985652;28;20037;-75
2023/04/24 10:57:22;;;;;;;10.30;2.63;;;10.60;99.90;;;;;;4987682;28;20049;-75
2023/04/24 11:00:09;;;;;;;8.68;2.25;;;10.60;99.90;;;;;;5002220;28;20436;-75
2023/04/24 11:02:38;;;;;;;6.38;2.05;;;10.70;99.90;;;;;;5008036;28;21397;-74
2023/04/24 11:05:05;;;;;;;8.02;2.45;;;10.70;99.90;;;;;;4993520;28;20033;-75
2023/04/24 11:08:13;;;;;;;9.55;3.20;;;10.90;99.90;;;;;;4998202;28;20045;-75
2023/04/24 11:10:47;;;;;;;7.88;2.53;;;11.00;99.90;;;;;;4978090;28;20029;-76
2023/04/24 11:13:17;;;;;;;4.78;1.70;;;11.00;99.90;;;;;;4985610;28;20037;-75
2023/04/24 11:15:43;;;;;;;7.70;2.47;;;10.90;99.90;;;;;;4989310;28;20033;-75
2023/04/24 11:18:15;;;;;;;9.25;1.52;;;10.80;99.90;;;;;;4987762;28;20029;-75
2023/04/24 11:20:46;;;;;;;12.25;2.10;;;10.50;99.90;;;;;;4968541;28;20037;-76
2023/04/24 11:23:14;;;;;;;7.45;2.67;;;10.50;99.90;;;;;;4992855;28;20505;-75
2023/04/24 11:25:41;;;;;;;15.38;2.28;;;10.60;99.90;;;;;;5008891;28;20048;-75
2023/04/24 11:28:14;;;;;;;6.55;2.20;;;10.80;99.90;;;;;;4985531;28;21435;-75
2023/04/24 11:30:40;;;;;;;6.53;1.58;;;11.20;99.90;;;;;;4980414;28;20087;-73
2023/04/24 11:33:06;;;;;;;4.65;1.15;;;11.70;99.90;;;;;;4986191;28;20030;-73
2023/04/24 11:35:39;;;;;;;7.20;1.02;;;11.80;99.90;;;;;;4988180;28;20644;-74
2023/04/24 11:38:07;;;;;;;6.47;0.90;;;11.70;99.90;;;;;;5017223;28;20831;-75
2023/04/24 11:40:33;;;;;;;4.03;0.63;;;11.60;99.90;;;;;;4985530;28;20605;-74
2023/04/24 11:43:00;;;;;;;4.05;0.70;;;11.50;99.90;;;;;;4976855;28;20049;-73
2023/04/24 11:45:30;;;;;;;4.13;0.70;;;11.50;99.90;;;;;;4990880;28;20034;-73
2023/04/24 11:47:58;;;;;;;2.75;0.60;;;11.60;99.90;;;;;;4984511;28;20583;-74
2023/04/24 11:50:27;;;;;;;4.53;0.60;;;11.60;99.90;;;;;;4976800;28;20045;-73
2023/04/24 11:52:55;;;;;;;1.60;0.40;;;11.70;99.90;;;;;;4986908;28;21487;-74
2023/04/24 11:55:21;;;;;;;3.38;0.50;;;11.70;99.90;;;;;;5001700;28;20056;-73
2023/04/24 11:57:49;;;;;;;5.75;0.60;;;11.60;99.90;;;;;;4985794;28;20497;-73
2023/04/24 12:00:17;;;;;;;2.67;0.40;;;11.50;99.90;;;;;;4986360;28;20257;-73
2023/04/24 12:02:43;;;;;;;3.10;0.50;;;11.40;99.90;;;;;;4994535;28;20045;-73
2023/04/24 12:05:18;;;;;;;3.90;0.50;;;11.20;99.90;;;;;;4962828;28;20539;-73
2023/04/24 12:07:45;;;;;;;3.25;0.40;;;11.00;99.90;;;;;;4988474;28;20531;-74
2023/04/24 12:10:11;;;;;;;4.82;0.77;;;10.80;99.90;;;;;;4984402;28;20045;-75
2023/04/24 12:12:37;;;;;;;3.40;0.50;;;10.70;99.90;;;;;;4971998;28;21931;-75
2023/04/24 12:15:08;;;;;;;1.17;0.40;;;10.50;99.90;;;;;;4987703;28;20762;-75
2023/04/24 12:17:36;;;;;;;1.95;0.40;;;10.30;99.90;;;;;;4973476;28;20041;-74
2023/04/24 12:20:05;;;;;;;1.55;0.50;;;10.20;99.90;;;;;;4968236;28;20060;-74
2023/04/24 12:22:45;;;;;;;1.80;0.50;;;10.40;99.90;;;;;;4994743;28;20038;-74
2023/04/24 12:25:12;;;;;;;6.85;1.02;;;10.80;99.90;;;;;;4979608;28;20315;-74
2023/04/24 12:27:38;;;;;;;5.95;0.95;;;11.50;99.90;;;;;;4992349;28;20033;-75
2023/04/24 12:30:09;;;;;;;2.28;0.50;;;12.00;99.90;;;;;;4984316;28;20037;-74
2023/04/24 12:32:44;;;;;;;3.45;0.60;;;12.40;99.90;;;;;;4970380;28;20041;-75
2023/04/24 12:35:11;;;;;;;3.75;0.70;;;12.70;99.90;;;;;;4988252;28;20342;-75
2023/04/24 12:37:39;;;;;;;7.50;2.25;;;12.90;99.90;;;;;;4989557;28;21562;-74
2023/04/24 12:40:10;;;;;;;3.85;0.90;;;13.30;99.90;;;;;;4986764;28;20029;-75
2023/04/24 12:42:47;;;;;;;2.70;0.50;;;13.70;99.90;;;;;;4996184;28;20030;-76
2023/04/24 12:45:14;;;;;;;3.95;0.85;;;13.90;99.90;;;;;;4996031;28;20503;-75